createdAt,value
2022-08-14T00:01:03.898Z,17.69
2022-08-14T00:03:37.549Z,17.02
2022-08-14T00:06:14.092Z,17.68
2022-08-14T00:08:54.235Z,17.12
2022-08-14T00:11:31.217Z,17.34
2022-08-14T00:14:01.541Z,17.14
2022-08-14T00:16:41.451Z,17.23
2022-08-14T00:19:19.642Z,17.42
2022-08-14T00:21:50.660Z,17.52
2022-08-14T00:24:23.282Z,17.05
2022-08-14T00:26:57.215Z,17.43
2022-08-14T00:29:25.179Z,17.20
2022-08-14T00:31:56.291Z,17.05
2022-08-14T00:34:37.215Z,17.01
2022-08-14T00:37:11.746Z,17.09
2022-08-14T00:39:39.759Z,16.87
2022-08-14T00:42:21.183Z,17.24
2022-08-14T00:44:48.834Z,16.83
2022-08-14T00:47:17.113Z,16.90
2022-08-14T00:49:45.609Z,16.67
2022-08-14T00:52:14.265Z,16.73
2022-08-14T00:54:46.521Z,17.13
2022-08-14T00:57:13.873Z,16.52
2022-08-14T00:59:40.789Z,16.58
2022-08-14T01:02:09.449Z,16.66
2022-08-14T01:04:54.375Z,16.77
2022-08-14T01:07:23.203Z,16.44
2022-08-14T01:09:55.346Z,16.36
2022-08-14T01:12:27.336Z,16.92
2022-08-14T01:15:02.388Z,16.43
2022-08-14T01:17:31.518Z,16.68
2022-08-14T01:19:59.524Z,16.34
2022-08-14T01:22:26.775Z,16.46
2022-08-14T01:24:53.919Z,16.28
2022-08-14T01:27:24.131Z,16.34
2022-08-14T01:30:01.258Z,16.18
2022-08-14T01:32:35.560Z,16.58
2022-08-14T01:35:18.267Z,16.24
2022-08-14T01:37:58.713Z,16.24
2022-08-14T01:40:36.765Z,16.05
2022-08-14T01:43:12.507Z,16.42
2022-08-14T01:45:41.086Z,16.01
2022-08-14T01:48:13.510Z,16.03
2022-08-14T01:50:42.569Z,16.06
2022-08-14T01:53:10.550Z,15.89
2022-08-14T01:55:40.305Z,16.17
2022-08-14T01:58:19.628Z,15.72
2022-08-14T02:00:51.859Z,15.73
2022-08-14T02:03:18.684Z,15.43
2022-08-14T02:05:49.034Z,15.75
2022-08-14T02:08:16.156Z,15.47
2022-08-14T02:10:49.467Z,15.52
2022-08-14T02:13:18.499Z,15.73
2022-08-14T02:15:48.665Z,15.66
2022-08-14T02:18:18.277Z,15.74
2022-08-14T02:20:45.640Z,15.87
2022-08-14T02:23:14.266Z,15.75
2022-08-14T02:25:42.177Z,15.87
2022-08-14T02:28:23.243Z,15.65
2022-08-14T02:30:56.828Z,15.98
2022-08-14T02:33:23.863Z,15.57
2022-08-14T02:35:53.570Z,15.53
2022-08-14T02:38:30.171Z,15.66
2022-08-14T02:40:58.525Z,15.64
2022-08-14T02:43:25.794Z,15.42
2022-08-14T02:46:06.588Z,15.52
2022-08-14T02:49:03.523Z,15.60
2022-08-14T02:51:30.460Z,15.22
2022-08-14T02:53:57.340Z,15.31
2022-08-14T02:56:29.518Z,15.12
2022-08-14T02:59:00.259Z,14.97
2022-08-14T03:01:31.459Z,14.77
2022-08-14T03:04:13.153Z,15.10
2022-08-14T03:07:06.787Z,14.93
2022-08-14T03:09:42.346Z,15.18
2022-08-14T03:12:17.911Z,15.06
2022-08-14T03:14:59.287Z,15.00
2022-08-14T03:17:26.326Z,15.07
2022-08-14T03:19:58.352Z,14.76
2022-08-14T03:22:27.819Z,14.39
2022-08-14T03:24:56.700Z,14.56
2022-08-14T03:27:23.554Z,15.00
2022-08-14T03:29:53.315Z,14.64
2022-08-14T03:32:19.892Z,14.71
2022-08-14T03:34:58.590Z,14.46
2022-08-14T03:37:39.108Z,15.04
2022-08-14T03:40:17.570Z,14.58
2022-08-14T03:42:45.409Z,14.74
2022-08-14T03:45:26.134Z,14.51
2022-08-14T03:48:01.646Z,14.48
2022-08-14T03:50:31.591Z,14.51
2022-08-14T03:53:03.429Z,14.57
2022-08-14T03:55:31.044Z,14.84
2022-08-14T03:57:58.457Z,14.54
2022-08-14T04:00:43.903Z,14.40
2022-08-14T04:03:18.038Z,14.74
2022-08-14T04:05:50.373Z,14.71
2022-08-14T04:08:29.243Z,14.85
2022-08-14T04:10:57.455Z,14.40
2022-08-14T04:13:24.657Z,14.21
2022-08-14T04:15:56.778Z,14.46
2022-08-14T04:18:28.462Z,14.37
2022-08-14T04:20:55.940Z,14.27
2022-08-14T04:23:30.009Z,14.52
2022-08-14T04:26:04.136Z,14.55
2022-08-14T04:29:07.190Z,14.81
2022-08-14T04:32:56.420Z,14.54
2022-08-14T04:34:07.896Z,14.70
2022-08-14T04:36:35.194Z,14.64
2022-08-14T04:39:02.978Z,14.53
2022-08-14T04:41:30.589Z,14.69
2022-08-14T04:43:57.823Z,14.60
2022-08-14T04:46:57.063Z,14.84
2022-08-14T04:49:11.470Z,14.95
2022-08-14T04:51:56.038Z,15.12
2022-08-14T04:54:27.329Z,15.24
2022-08-14T04:56:55.650Z,15.21
2022-08-14T04:59:23.568Z,15.58
2022-08-14T05:01:53.985Z,15.35
2022-08-14T05:04:23.522Z,15.67
2022-08-14T05:06:54.205Z,16.13
2022-08-14T05:09:23.272Z,15.83
2022-08-14T05:11:49.976Z,16.36
2022-08-14T05:14:46.905Z,16.70
2022-08-14T05:17:06.822Z,17.01
2022-08-14T05:19:33.667Z,16.90
2022-08-14T05:22:17.544Z,16.63
2022-08-14T05:24:49.598Z,16.92
2022-08-14T05:27:19.402Z,16.59
2022-08-14T05:29:46.555Z,16.62
2022-08-14T05:32:14.194Z,16.70
2022-08-14T05:34:41.731Z,16.86
2022-08-14T05:37:12.579Z,17.05
2022-08-14T05:39:41.970Z,17.43
2022-08-14T05:42:09.859Z,17.58
2022-08-14T05:44:48.515Z,17.81
2022-08-14T05:47:16.063Z,17.64
2022-08-14T05:49:43.695Z,18.01
2022-08-14T05:52:10.847Z,17.90
2022-08-14T05:54:44.647Z,17.90
2022-08-14T05:57:11.296Z,18.09
2022-08-14T05:59:39.705Z,18.50
2022-08-14T06:02:11.060Z,18.21
2022-08-14T06:04:39.553Z,18.42
2022-08-14T06:07:06.565Z,18.61
2022-08-14T06:09:35.912Z,18.70
2022-08-14T06:12:11.997Z,19.11
2022-08-14T06:14:39.431Z,19.04
2022-08-14T06:17:06.667Z,18.95
2022-08-14T06:19:33.412Z,19.01
2022-08-14T06:22:00.117Z,19.32
2022-08-14T06:24:30.477Z,19.22
2022-08-14T06:27:04.625Z,19.80
2022-08-14T06:29:34.769Z,19.26
2022-08-14T06:32:52.507Z,19.72
2022-08-14T06:35:09.432Z,19.94
2022-08-14T06:37:46.912Z,19.68
2022-08-14T06:40:26.215Z,19.70
2022-08-14T06:43:09.969Z,20.26
2022-08-14T06:45:39.335Z,20.55
2022-08-14T06:48:17.140Z,20.18
2022-08-14T06:50:45.437Z,20.33
2022-08-14T06:53:14.711Z,20.42
2022-08-14T06:55:58.192Z,20.33
2022-08-14T06:58:29.212Z,20.65
2022-08-14T07:00:57.937Z,20.89
2022-08-14T07:03:24.832Z,20.04
2022-08-14T07:05:57.975Z,20.51
2022-08-14T07:08:29.515Z,20.77
2022-08-14T07:11:01.714Z,20.43
2022-08-14T07:13:30.617Z,20.51
2022-08-14T07:16:00.702Z,20.75
2022-08-14T07:18:34.018Z,21.25
2022-08-14T07:21:02.560Z,20.03
2022-08-14T07:23:31.065Z,20.83
2022-08-14T07:26:00.076Z,20.72
2022-08-14T07:28:30.219Z,20.74
2022-08-14T07:31:05.303Z,20.69
2022-08-14T07:33:50.238Z,20.23
2022-08-14T07:36:27.930Z,20.37
2022-08-14T07:38:59.465Z,20.76
2022-08-14T07:41:33.702Z,20.57
2022-08-14T07:44:28.932Z,20.79
2022-08-14T07:46:48.498Z,20.49
2022-08-14T07:49:18.233Z,20.80
2022-08-14T07:51:45.913Z,20.70
2022-08-14T07:54:23.109Z,20.72
2022-08-14T07:57:00.856Z,20.95
2022-08-14T07:59:40.984Z,20.65
2022-08-14T08:02:18.657Z,21.22
2022-08-14T08:04:50.161Z,20.82
2022-08-14T08:07:17.115Z,20.93
2022-08-14T08:09:55.452Z,21.29
2022-08-14T08:12:28.002Z,20.63
2022-08-14T08:15:03.469Z,20.89
2022-08-14T08:17:38.734Z,21.09
2022-08-14T08:20:15.595Z,20.98
2022-08-14T08:22:48.074Z,21.13
2022-08-14T08:25:18.137Z,21.64
2022-08-14T08:28:08.359Z,21.98
2022-08-14T08:30:37.920Z,22.16
2022-08-14T08:33:17.095Z,22.30
2022-08-14T08:35:50.852Z,22.54
2022-08-14T08:39:18.871Z,21.96
2022-08-14T08:41:11.424Z,22.00
2022-08-14T08:43:39.699Z,22.16
2022-08-14T08:46:23.360Z,22.02
2022-08-14T08:51:30.710Z,22.56
2022-08-14T08:54:14.966Z,22.12
2022-08-14T08:56:51.870Z,22.13
2022-08-14T08:59:27.315Z,22.12
2022-08-14T09:02:05.158Z,22.78
2022-08-14T09:04:45.292Z,22.76
2022-08-14T09:07:28.294Z,22.67
2022-08-14T09:10:00.152Z,23.13
2022-08-14T09:12:33.195Z,22.96
2022-08-14T09:15:12.243Z,23.47
2022-08-14T09:17:41.561Z,23.52
2022-08-14T09:20:11.526Z,23.35
2022-08-14T09:22:47.485Z,24.33
2022-08-14T09:25:16.492Z,24.13
2022-08-14T09:27:43.848Z,23.93
2022-08-14T09:30:31.504Z,23.93
2022-08-14T09:33:04.823Z,23.95
2022-08-14T09:35:49.681Z,23.88
2022-08-14T09:38:40.595Z,23.57
2022-08-14T09:42:17.437Z,23.79
2022-08-14T09:44:54.147Z,23.95
2022-08-14T09:47:21.388Z,23.60
2022-08-14T09:49:53.296Z,23.62
2022-08-14T09:52:32.666Z,23.65
2022-08-14T09:55:17.359Z,23.71
2022-08-14T09:57:51.599Z,23.24
2022-08-14T10:00:42.080Z,24.09
2022-08-14T10:03:09.576Z,22.94
2022-08-14T10:05:39.366Z,23.69
2022-08-14T10:08:25.286Z,22.64
2022-08-14T10:10:57.042Z,23.70
2022-08-14T10:13:29.350Z,25.08
2022-08-14T10:16:26.089Z,25.30
2022-08-14T10:19:07.607Z,25.66
2022-08-14T10:21:58.281Z,25.13
2022-08-14T10:24:37.290Z,25.51
2022-08-14T10:27:05.152Z,25.80
2022-08-14T10:29:38.898Z,25.16
2022-08-14T10:32:17.771Z,25.31
2022-08-14T10:34:46.983Z,25.85
2022-08-14T10:37:20.120Z,25.86
2022-08-14T10:40:10.650Z,26.40
2022-08-14T10:42:48.340Z,25.96
2022-08-14T10:45:35.399Z,26.29
2022-08-14T10:48:24.431Z,25.30
2022-08-14T10:51:02.861Z,26.38
2022-08-14T10:53:35.797Z,26.52
2022-08-14T10:56:21.537Z,26.45
2022-08-14T10:59:08.153Z,27.13
2022-08-14T11:01:41.454Z,27.15
2022-08-14T11:04:26.017Z,27.00
2022-08-14T11:06:57.986Z,26.71
2022-08-14T11:09:25.985Z,27.31
2022-08-14T11:11:56.543Z,27.70
2022-08-14T11:14:51.124Z,27.61
2022-08-14T11:17:27.783Z,27.49
2022-08-14T11:20:00.177Z,27.40
2022-08-14T11:22:52.598Z,26.88
2022-08-14T11:25:16.734Z,26.87
2022-08-14T11:27:45.774Z,26.54
2022-08-14T11:30:50.076Z,26.36
2022-08-14T11:33:09.361Z,25.78
2022-08-14T11:35:47.854Z,26.99
2022-08-14T11:38:17.030Z,27.44
2022-08-14T11:40:47.157Z,26.61
2022-08-14T11:43:15.094Z,25.84
2022-08-14T11:45:47.806Z,26.09
2022-08-14T11:49:02.642Z,26.37
2022-08-14T11:51:19.741Z,25.80
2022-08-14T11:54:05.513Z,25.33
2022-08-14T11:56:37.339Z,25.16
2022-08-14T11:59:07.142Z,25.89
2022-08-14T12:01:38.069Z,25.46
2022-08-14T12:04:31.701Z,26.06
2022-08-14T12:06:59.617Z,25.68
2022-08-14T12:09:32.672Z,25.66
2022-08-14T12:12:01.204Z,25.40
2022-08-14T12:14:30.873Z,25.28
2022-08-14T12:17:05.612Z,25.82
2022-08-14T12:19:51.555Z,25.85
2022-08-14T12:22:40.137Z,25.35
2022-08-14T12:25:19.743Z,26.17
2022-08-14T12:27:53.353Z,26.04
2022-08-14T12:30:42.458Z,26.61
2022-08-14T12:33:46.898Z,26.51
2022-08-14T12:36:21.189Z,26.53
2022-08-14T12:38:48.743Z,26.04
2022-08-14T12:41:24.123Z,26.87
2022-08-14T12:44:00.562Z,26.77
2022-08-14T12:46:35.995Z,26.71
2022-08-14T12:49:10.993Z,26.16
2022-08-14T12:51:38.119Z,26.66
2022-08-14T12:54:27.441Z,26.39
2022-08-14T12:57:18.968Z,26.77
2022-08-14T12:59:47.305Z,26.72
2022-08-14T13:02:26.397Z,27.33
2022-08-14T13:04:57.117Z,27.16
2022-08-14T13:07:26.946Z,27.34
2022-08-14T13:10:00.250Z,25.97
2022-08-14T13:12:31.820Z,27.49
2022-08-14T13:15:09.676Z,25.95
2022-08-14T13:17:51.198Z,27.13
2022-08-14T13:20:24.564Z,26.44
2022-08-14T13:22:53.617Z,27.10
2022-08-14T13:25:24.278Z,27.44
2022-08-14T13:27:54.552Z,27.55
2022-08-14T13:30:24.390Z,26.41
2022-08-14T13:32:53.964Z,27.27
2022-08-14T13:35:22.876Z,27.88
2022-08-14T13:37:52.385Z,27.92
2022-08-14T13:40:26.705Z,27.95
2022-08-14T13:42:54.735Z,26.85
2022-08-14T13:45:23.866Z,27.50
2022-08-14T13:48:00.899Z,27.39
2022-08-14T13:50:27.667Z,27.11
2022-08-14T13:52:59.563Z,26.82
2022-08-14T13:55:29.043Z,26.59
2022-08-14T13:58:03.605Z,26.91
2022-08-14T14:00:53.160Z,26.81
2022-08-14T14:03:24.699Z,26.68
2022-08-14T14:05:55.153Z,26.49
2022-08-14T14:08:43.645Z,26.72
2022-08-14T14:11:11.371Z,26.45
2022-08-14T14:13:44.685Z,25.52
2022-08-14T14:16:15.083Z,24.92
2022-08-14T14:18:46.132Z,24.97
2022-08-14T14:21:14.075Z,24.79
2022-08-14T14:23:42.167Z,25.11
2022-08-14T14:26:13.721Z,25.40
2022-08-14T14:28:42.612Z,25.21
2022-08-14T14:31:11.110Z,25.13
2022-08-14T14:33:46.782Z,26.07
2022-08-14T14:36:20.875Z,26.21
2022-08-14T14:38:53.588Z,25.97
2022-08-14T14:41:23.140Z,25.83
2022-08-14T14:43:51.484Z,26.63
2022-08-14T14:46:21.023Z,26.28
2022-08-14T14:48:54.095Z,26.51
2022-08-14T14:51:21.759Z,26.57
2022-08-14T14:53:48.372Z,25.76
2022-08-14T14:56:50.949Z,25.59
2022-08-14T14:59:02.054Z,25.03
2022-08-14T15:01:28.733Z,24.75
2022-08-14T15:03:56.753Z,25.82
2022-08-14T15:06:29.027Z,26.30
2022-08-14T15:08:59.974Z,26.37
2022-08-14T15:11:30.093Z,25.79
2022-08-14T15:13:57.374Z,26.24
2022-08-14T15:16:24.872Z,26.46
2022-08-14T15:18:51.642Z,26.28
2022-08-14T15:21:20.119Z,26.47
2022-08-14T15:23:46.712Z,26.35
2022-08-14T15:26:23.899Z,26.21
2022-08-14T15:29:07.631Z,26.43
2022-08-14T15:31:36.187Z,26.48
2022-08-14T15:34:43.803Z,25.99
2022-08-14T15:36:50.758Z,26.05
2022-08-14T15:39:17.519Z,24.10
2022-08-14T15:41:45.265Z,26.18
2022-08-14T15:44:25.224Z,26.01
2022-08-14T15:46:54.023Z,26.11
2022-08-14T15:49:22.935Z,26.40
2022-08-14T15:51:50.989Z,26.03
2022-08-14T15:54:17.814Z,25.63
2022-08-14T15:57:05.786Z,26.71
2022-08-14T15:59:36.026Z,26.63
2022-08-14T16:02:02.721Z,25.98
2022-08-14T16:04:29.527Z,26.29
2022-08-14T16:06:56.844Z,26.23
2022-08-14T16:09:23.449Z,26.13
2022-08-14T16:11:53.747Z,26.51
2022-08-14T16:14:21.886Z,27.00
2022-08-14T16:17:00.321Z,26.56
2022-08-14T16:19:29.381Z,27.44
2022-08-14T16:22:57.013Z,27.44
2022-08-14T16:25:00.134Z,27.80
2022-08-14T16:27:39.358Z,27.66
2022-08-14T16:30:24.622Z,28.34
2022-08-14T16:32:57.022Z,26.27
2022-08-14T16:35:41.897Z,28.32
2022-08-14T16:38:19.635Z,28.80
2022-08-14T16:41:06.568Z,27.65
2022-08-14T16:43:33.555Z,28.39
2022-08-14T16:46:00.575Z,27.37
2022-08-14T16:48:54.727Z,28.01
2022-08-14T16:51:15.058Z,28.11
2022-08-14T16:53:42.316Z,26.53
2022-08-14T16:56:23.438Z,26.88
2022-08-14T16:59:04.944Z,26.90
2022-08-14T17:01:31.942Z,26.46
2022-08-14T17:04:06.501Z,27.07
2022-08-14T17:06:38.140Z,27.06
2022-08-14T17:09:08.050Z,26.86
2022-08-14T17:11:54.582Z,27.52
2022-08-14T17:14:23.178Z,27.21
2022-08-14T17:16:56.887Z,27.46
2022-08-14T17:19:24.754Z,27.14
2022-08-14T17:21:52.813Z,26.49
2022-08-14T17:25:02.923Z,25.95
2022-08-14T17:27:08.689Z,26.76
2022-08-14T17:29:55.941Z,26.87
2022-08-14T17:32:29.356Z,27.16
2022-08-14T17:35:16.398Z,26.98
2022-08-14T17:37:47.402Z,27.19
2022-08-14T17:40:24.101Z,27.40
2022-08-14T17:42:55.018Z,27.38
2022-08-14T17:45:42.686Z,27.37
2022-08-14T17:49:14.062Z,26.74
2022-08-14T17:51:24.013Z,27.09
2022-08-14T17:54:01.243Z,27.26
2022-08-14T17:56:33.042Z,27.24
2022-08-14T17:59:07.368Z,27.22
2022-08-14T18:01:39.485Z,27.22
2022-08-14T18:04:24.746Z,27.20
2022-08-14T18:06:58.847Z,25.52
2022-08-14T18:09:56.919Z,26.94
2022-08-14T18:12:37.059Z,26.90
2022-08-14T18:15:16.147Z,26.69
2022-08-14T18:17:54.098Z,26.46
2022-08-14T18:21:43.112Z,24.51
2022-08-14T18:23:14.624Z,26.26
2022-08-14T18:25:54.504Z,26.14
2022-08-14T18:28:50.984Z,25.36
2022-08-14T18:31:24.389Z,26.00
2022-08-14T18:33:57.172Z,25.88
2022-08-14T18:37:09.631Z,25.71
2022-08-14T18:40:02.018Z,25.28
2022-08-14T18:42:34.918Z,25.37
2022-08-14T18:45:02.118Z,25.28
2022-08-14T18:48:51.733Z,25.17
2022-08-14T18:51:46.246Z,20.40
2022-08-14T18:54:32.828Z,24.87
2022-08-14T18:57:03.091Z,22.70
2022-08-14T18:59:35.441Z,24.65
2022-08-14T19:02:30.220Z,24.55
2022-08-14T19:04:59.655Z,24.24
2022-08-14T19:07:29.610Z,23.36
2022-08-14T19:10:07.423Z,24.30
2022-08-14T19:12:52.732Z,24.27
2022-08-14T19:15:35.035Z,24.05
2022-08-14T19:18:27.921Z,24.01
2022-08-14T19:21:18.250Z,23.97
2022-08-14T19:24:44.212Z,23.87
2022-08-14T19:27:19.268Z,23.53
2022-08-14T19:29:51.386Z,23.46
2022-08-14T19:32:36.482Z,23.63
2022-08-14T19:35:17.323Z,23.27
2022-08-14T19:37:47.792Z,23.47
2022-08-14T19:40:38.949Z,22.85
2022-08-14T19:43:56.582Z,22.67
2022-08-14T19:46:39.528Z,23.09
2022-08-14T19:49:06.651Z,22.59
2022-08-14T19:51:41.938Z,21.84
2022-08-14T19:54:13.522Z,23.24
2022-08-14T19:56:49.030Z,20.38
2022-08-14T19:59:25.776Z,20.17
2022-08-14T20:02:06.817Z,22.36
2022-08-14T20:04:45.820Z,22.91
2022-08-14T20:07:59.135Z,20.17
2022-08-14T20:11:06.479Z,23.16
2022-08-14T20:13:24.869Z,20.49
2022-08-14T20:16:12.423Z,20.59
2022-08-14T20:18:50.082Z,22.32
2022-08-14T20:21:18.581Z,22.10
2022-08-14T20:23:47.994Z,22.15
2022-08-14T20:26:31.293Z,22.41
2022-08-14T20:29:05.049Z,22.19
2022-08-14T20:31:42.383Z,22.05
2022-08-14T20:34:19.031Z,19.84
2022-08-14T20:37:10.369Z,22.90
2022-08-14T20:39:40.056Z,22.03
2022-08-14T20:42:19.329Z,21.81
2022-08-14T20:44:59.130Z,20.62
2022-08-14T20:48:00.864Z,18.49
2022-08-14T20:50:46.090Z,22.57
2022-08-14T20:53:28.830Z,21.65
2022-08-14T20:56:28.160Z,22.21
2022-08-14T20:58:50.561Z,21.52
2022-08-14T21:01:17.577Z,22.31
2022-08-14T21:03:56.247Z,22.07
2022-08-14T21:06:30.542Z,22.15
2022-08-14T21:09:17.615Z,21.30
2022-08-14T21:11:51.482Z,21.37
2022-08-14T21:14:34.160Z,21.84
2022-08-14T21:17:00.962Z,21.83
2022-08-14T21:19:30.821Z,21.12
2022-08-14T21:21:58.851Z,20.23
2022-08-14T21:24:46.971Z,21.80
2022-08-14T21:27:19.776Z,19.80
2022-08-14T21:29:55.441Z,20.34
2022-08-14T21:32:29.260Z,21.16
2022-08-14T21:35:08.078Z,21.95
2022-08-14T21:37:40.793Z,21.34
2022-08-14T21:40:40.806Z,21.43
2022-08-14T21:42:55.330Z,21.30
2022-08-14T21:45:22.154Z,21.52
2022-08-14T21:47:48.779Z,20.71
2022-08-14T21:50:39.568Z,21.51
2022-08-14T21:53:06.786Z,21.04
2022-08-14T21:55:37.406Z,19.55
2022-08-14T21:58:53.182Z,20.44
2022-08-14T22:00:52.223Z,20.80
2022-08-14T22:03:24.268Z,20.18
2022-08-14T22:05:56.904Z,20.67
2022-08-14T22:08:26.641Z,20.45
2022-08-14T22:10:59.151Z,20.76
2022-08-14T22:13:27.515Z,21.28
2022-08-14T22:16:02.008Z,20.61
2022-08-14T22:18:29.837Z,21.42
2022-08-14T22:20:56.922Z,20.96
2022-08-14T22:23:32.596Z,20.83
2022-08-14T22:26:03.315Z,21.03
2022-08-14T22:28:34.087Z,20.84
2022-08-14T22:31:10.518Z,21.80
2022-08-14T22:33:51.317Z,21.79
2022-08-14T22:36:48.604Z,19.27
2022-08-14T22:40:17.163Z,21.58
2022-08-14T22:42:21.464Z,20.30
2022-08-14T22:44:51.998Z,21.49
2022-08-14T22:47:25.004Z,21.56
2022-08-14T22:50:29.253Z,20.79
2022-08-14T22:52:38.855Z,20.27
2022-08-14T22:55:07.440Z,20.72
2022-08-14T22:57:37.935Z,20.88
2022-08-14T23:00:17.141Z,21.31
2022-08-14T23:02:44.737Z,20.47
2022-08-14T23:05:11.444Z,20.57
2022-08-14T23:08:58.527Z,21.43
2022-08-14T23:10:33.828Z,21.33
2022-08-14T23:13:03.686Z,20.49
2022-08-14T23:15:30.657Z,20.97
2022-08-14T23:17:57.957Z,20.77
2022-08-14T23:20:29.291Z,20.66
2022-08-14T23:22:57.754Z,21.07
2022-08-14T23:25:56.994Z,21.56
2022-08-14T23:28:34.909Z,21.51
2022-08-14T23:31:08.539Z,20.89
2022-08-14T23:33:46.099Z,21.41
2022-08-14T23:36:28.543Z,21.45
2022-08-14T23:38:59.635Z,21.03
2022-08-14T23:41:26.607Z,20.69
2022-08-14T23:44:14.788Z,20.28
2022-08-14T23:46:41.851Z,20.30
2022-08-14T23:49:12.599Z,20.60
2022-08-14T23:51:39.279Z,20.71
2022-08-14T23:54:06.149Z,20.46
2022-08-14T23:57:02.392Z,20.98
2022-08-14T23:59:31.704Z,20.66
